sensor_id;sensor_type;location;lat;lon;timestamp;pressure;altitude;pressure_sealevel;temperature;humidity
49297;BME280;35163;48.878;18.040;2023-07-16T00:02:02;98180.91;;;26.42;55.41
49297;BME280;35163;48.878;18.040;2023-07-16T00:04:33;98178.06;;;26.35;55.22
49297;BME280;35163;48.878;18.040;2023-07-16T00:07:00;98177.75;;;26.38;55.40
49297;BME280;35163;48.878;18.040;2023-07-16T00:09:28;98177.34;;;26.33;55.26
49297;BME280;35163;48.878;18.040;2023-07-16T00:11:56;98175.19;;;26.28;55.69
49297;BME280;35163;48.878;18.040;2023-07-16T00:14:23;98170.69;;;26.29;55.21
49297;BME280;35163;48.878;18.040;2023-07-16T00:16:50;98180.41;;;26.38;54.63
49297;BME280;35163;48.878;18.040;2023-07-16T00:19:17;98178.75;;;26.37;54.97
49297;BME280;35163;48.878;18.040;2023-07-16T00:21:44;98170.13;;;26.35;55.10
49297;BME280;35163;48.878;18.040;2023-07-16T00:24:10;98166.91;;;26.31;55.45
49297;BME280;35163;48.878;18.040;2023-07-16T00:26:37;98174.34;;;26.28;55.71
49297;BME280;35163;48.878;18.040;2023-07-16T00:29:04;98175.34;;;26.27;55.40
49297;BME280;35163;48.878;18.040;2023-07-16T00:31:30;98160.72;;;26.23;55.74
49297;BME280;35163;48.878;18.040;2023-07-16T00:33:57;98165.06;;;26.24;55.53
49297;BME280;35163;48.878;18.040;2023-07-16T00:36:24;98168.00;;;26.20;55.87
49297;BME280;35163;48.878;18.040;2023-07-16T00:38:51;98172.75;;;26.17;55.66
49297;BME280;35163;48.878;18.040;2023-07-16T00:41:18;98174.41;;;26.09;56.25
49297;BME280;35163;48.878;18.040;2023-07-16T00:43:45;98164.94;;;26.07;56.39
49297;BME280;35163;48.878;18.040;2023-07-16T00:46:12;98161.75;;;26.03;56.57
49297;BME280;35163;48.878;18.040;2023-07-16T00:48:40;98161.38;;;25.98;56.86
49297;BME280;35163;48.878;18.040;2023-07-16T00:51:08;98150.13;;;25.96;57.01
49297;BME280;35163;48.878;18.040;2023-07-16T00:53:35;98152.94;;;25.94;57.14
49297;BME280;35163;48.878;18.040;2023-07-16T00:56:02;98158.22;;;25.94;56.98
49297;BME280;35163;48.878;18.040;2023-07-16T00:58:28;98156.56;;;25.93;57.04
49297;BME280;35163;48.878;18.040;2023-07-16T01:00:55;98151.88;;;25.87;57.29
49297;BME280;35163;48.878;18.040;2023-07-16T01:03:22;98147.56;;;25.86;57.11
49297;BME280;35163;48.878;18.040;2023-07-16T01:08:39;98142.34;;;25.76;58.08
49297;BME280;35163;48.878;18.040;2023-07-16T01:11:08;98144.16;;;25.76;57.78
49297;BME280;35163;48.878;18.040;2023-07-16T01:13:35;98130.59;;;25.70;58.20
49297;BME280;35163;48.878;18.040;2023-07-16T01:16:02;98130.44;;;25.72;57.68
49297;BME280;35163;48.878;18.040;2023-07-16T01:18:29;98131.53;;;25.69;58.01
49297;BME280;35163;48.878;18.040;2023-07-16T01:20:56;98131.41;;;25.71;57.82
49297;BME280;35163;48.878;18.040;2023-07-16T01:23:28;98132.28;;;25.62;58.39
49297;BME280;35163;48.878;18.040;2023-07-16T01:31:59;98123.81;;;25.58;58.39
49297;BME280;35163;48.878;18.040;2023-07-16T01:34:28;98121.19;;;25.58;58.44
49297;BME280;35163;48.878;18.040;2023-07-16T01:36:56;98128.44;;;25.56;58.65
49297;BME280;35163;48.878;18.040;2023-07-16T01:39:23;98133.03;;;25.54;58.66
49297;BME280;35163;48.878;18.040;2023-07-16T01:41:50;98130.16;;;25.47;59.10
49297;BME280;35163;48.878;18.040;2023-07-16T01:44:17;98120.72;;;25.44;58.75
49297;BME280;35163;48.878;18.040;2023-07-16T01:46:43;98120.56;;;25.46;58.86
49297;BME280;35163;48.878;18.040;2023-07-16T01:49:10;98111.66;;;25.47;58.63
49297;BME280;35163;48.878;18.040;2023-07-16T01:51:37;98121.09;;;25.50;58.71
49297;BME280;35163;48.878;18.040;2023-07-16T01:54:04;98122.06;;;25.48;58.47
49297;BME280;35163;48.878;18.040;2023-07-16T01:56:30;98124.88;;;25.47;58.55
49297;BME280;35163;48.878;18.040;2023-07-16T01:58:57;98122.38;;;25.45;58.52
49297;BME280;35163;48.878;18.040;2023-07-16T02:01:24;98122.69;;;25.42;58.66
49297;BME280;35163;48.878;18.040;2023-07-16T02:03:51;98121.84;;;25.42;58.77
49297;BME280;35163;48.878;18.040;2023-07-16T02:06:18;98124.66;;;25.40;58.39
49297;BME280;35163;48.878;18.040;2023-07-16T02:08:44;98130.94;;;25.39;58.38
49297;BME280;35163;48.878;18.040;2023-07-16T02:11:11;98118.50;;;25.40;58.10
49297;BME280;35163;48.878;18.040;2023-07-16T02:13:38;98110.97;;;25.45;57.64
49297;BME280;35163;48.878;18.040;2023-07-16T02:16:05;98120.72;;;25.44;57.45
49297;BME280;35163;48.878;18.040;2023-07-16T02:18:31;98112.94;;;25.43;57.51
49297;BME280;35163;48.878;18.040;2023-07-16T02:20:58;98108.03;;;25.48;56.91
49297;BME280;35163;48.878;18.040;2023-07-16T02:23:24;98115.13;;;25.47;56.99
49297;BME280;35163;48.878;18.040;2023-07-16T02:25:51;98109.47;;;25.42;57.22
49297;BME280;35163;48.878;18.040;2023-07-16T02:28:18;98117.09;;;25.45;56.71
49297;BME280;35163;48.878;18.040;2023-07-16T02:30:44;98114.28;;;25.47;56.62
49297;BME280;35163;48.878;18.040;2023-07-16T02:33:11;98116.47;;;25.52;56.32
49297;BME280;35163;48.878;18.040;2023-07-16T02:35:38;98115.66;;;25.51;55.82
49297;BME280;35163;48.878;18.040;2023-07-16T02:38:04;98120.34;;;25.57;55.43
49297;BME280;35163;48.878;18.040;2023-07-16T02:40:31;98115.56;;;25.61;55.00
49297;BME280;35163;48.878;18.040;2023-07-16T02:42:58;98112.09;;;25.60;55.60
49297;BME280;35163;48.878;18.040;2023-07-16T02:45:24;98109.44;;;25.60;55.64
49297;BME280;35163;48.878;18.040;2023-07-16T02:47:51;98115.03;;;25.57;55.59
49297;BME280;35163;48.878;18.040;2023-07-16T02:50:18;98119.81;;;25.54;55.96
49297;BME280;35163;48.878;18.040;2023-07-16T02:52:45;98115.50;;;25.53;55.97
49297;BME280;35163;48.878;18.040;2023-07-16T02:55:11;98116.34;;;25.53;56.11
49297;BME280;35163;48.878;18.040;2023-07-16T02:57:38;98119.81;;;25.54;55.90
49297;BME280;35163;48.878;18.040;2023-07-16T03:00:05;98120.97;;;25.51;56.17
49297;BME280;35163;48.878;18.040;2023-07-16T03:02:32;98121.63;;;25.53;55.74
49297;BME280;35163;48.878;18.040;2023-07-16T03:04:59;98126.63;;;25.56;55.75
49297;BME280;35163;48.878;18.040;2023-07-16T03:07:26;98119.97;;;25.52;56.22
49297;BME280;35163;48.878;18.040;2023-07-16T03:09:52;98121.25;;;25.48;56.29
49297;BME280;35163;48.878;18.040;2023-07-16T03:12:19;98121.53;;;25.45;56.50
49297;BME280;35163;48.878;18.040;2023-07-16T03:14:46;98123.22;;;25.46;56.18
49297;BME280;35163;48.878;18.040;2023-07-16T03:17:12;98122.69;;;25.42;56.71
49297;BME280;35163;48.878;18.040;2023-07-16T03:19:39;98125.72;;;25.47;56.34
49297;BME280;35163;48.878;18.040;2023-07-16T03:22:06;98127.38;;;25.48;56.16
49297;BME280;35163;48.878;18.040;2023-07-16T03:24:33;98124.72;;;25.48;56.63
49297;BME280;35163;48.878;18.040;2023-07-16T03:27:00;98129.31;;;25.46;56.47
49297;BME280;35163;48.878;18.040;2023-07-16T03:29:43;98140.75;;;25.47;56.31
49297;BME280;35163;48.878;18.040;2023-07-16T03:32:10;98142.72;;;25.45;56.41
49297;BME280;35163;48.878;18.040;2023-07-16T03:34:37;98142.88;;;25.43;56.53
49297;BME280;35163;48.878;18.040;2023-07-16T03:37:03;98148.06;;;25.35;56.90
49297;BME280;35163;48.878;18.040;2023-07-16T03:39:30;98146.03;;;25.29;56.95
49297;BME280;35163;48.878;18.040;2023-07-16T03:41:57;98152.31;;;25.28;57.12
49297;BME280;35163;48.878;18.040;2023-07-16T03:44:24;98148.47;;;25.22;57.30
49297;BME280;35163;48.878;18.040;2023-07-16T03:46:50;98154.56;;;25.22;57.17
49297;BME280;35163;48.878;18.040;2023-07-16T03:49:17;98151.41;;;25.19;57.55
49297;BME280;35163;48.878;18.040;2023-07-16T03:51:44;98152.38;;;25.18;57.85
49297;BME280;35163;48.878;18.040;2023-07-16T03:54:10;98148.22;;;25.15;58.05
49297;BME280;35163;48.878;18.040;2023-07-16T03:56:37;98148.88;;;25.17;57.91
49297;BME280;35163;48.878;18.040;2023-07-16T03:59:04;98151.84;;;25.14;58.03
49297;BME280;35163;48.878;18.040;2023-07-16T04:01:30;98151.03;;;25.14;58.19
49297;BME280;35163;48.878;18.040;2023-07-16T04:03:57;98149.34;;;25.12;57.99
49297;BME280;35163;48.878;18.040;2023-07-16T04:06:24;98159.47;;;25.17;57.49
49297;BME280;35163;48.878;18.040;2023-07-16T04:08:50;98158.50;;;25.18;57.43
49297;BME280;35163;48.878;18.040;2023-07-16T04:11:17;98163.50;;;25.21;57.64
49297;BME280;35163;48.878;18.040;2023-07-16T04:13:44;98165.28;;;25.21;57.91
49297;BME280;35163;48.878;18.040;2023-07-16T04:16:10;98167.78;;;25.22;58.16
49297;BME280;35163;48.878;18.040;2023-07-16T04:18:37;98174.75;;;25.23;57.83
49297;BME280;35163;48.878;18.040;2023-07-16T04:21:04;98162.38;;;25.24;57.71
49297;BME280;35163;48.878;18.040;2023-07-16T04:23:30;98173.75;;;25.24;57.84
49297;BME280;35163;48.878;18.040;2023-07-16T04:25:57;98173.75;;;25.24;57.64
49297;BME280;35163;48.878;18.040;2023-07-16T04:28:24;98173.19;;;25.31;57.35
49297;BME280;35163;48.878;18.040;2023-07-16T04:30:50;98175.53;;;25.34;57.16
49297;BME280;35163;48.878;18.040;2023-07-16T04:33:17;98173.97;;;25.41;56.33
49297;BME280;35163;48.878;18.040;2023-07-16T04:35:45;98182.78;;;25.50;55.84
49297;BME280;35163;48.878;18.040;2023-07-16T04:38:12;98174.84;;;25.50;55.62
49297;BME280;35163;48.878;18.040;2023-07-16T04:40:39;98181.34;;;25.56;55.56
49297;BME280;35163;48.878;18.040;2023-07-16T04:43:07;98184.69;;;25.58;55.06
49297;BME280;35163;48.878;18.040;2023-07-16T04:45:34;98180.22;;;25.58;54.80
49297;BME280;35163;48.878;18.040;2023-07-16T04:48:01;98181.06;;;25.59;54.55
49297;BME280;35163;48.878;18.040;2023-07-16T04:50:27;98178.41;;;25.59;54.86
49297;BME280;35163;48.878;18.040;2023-07-16T04:52:54;98177.56;;;25.58;54.69
49297;BME280;35163;48.878;18.040;2023-07-16T04:55:21;98171.31;;;25.59;54.72
49297;BME280;35163;48.878;18.040;2023-07-16T04:57:47;98174.09;;;25.58;54.48
49297;BME280;35163;48.878;18.040;2023-07-16T05:00:14;98179.09;;;25.61;54.49
49297;BME280;35163;48.878;18.040;2023-07-16T05:02:41;98185.38;;;25.60;54.60
49297;BME280;35163;48.878;18.040;2023-07-16T05:05:08;98187.44;;;25.66;54.48
49297;BME280;35163;48.878;18.040;2023-07-16T05:07:34;98177.31;;;25.80;53.72
49297;BME280;35163;48.878;18.040;2023-07-16T05:10:01;98177.41;;;25.96;53.52
49297;BME280;35163;48.878;18.040;2023-07-16T05:12:28;98191.47;;;26.15;53.06
49297;BME280;35163;48.878;18.040;2023-07-16T05:14:54;98180.72;;;26.35;52.81
49297;BME280;35163;48.878;18.040;2023-07-16T05:17:21;98194.06;;;26.52;51.95
49297;BME280;35163;48.878;18.040;2023-07-16T05:19:48;98191.34;;;26.70;51.14
49297;BME280;35163;48.878;18.040;2023-07-16T05:22:15;98189.28;;;26.90;50.75
49297;BME280;35163;48.878;18.040;2023-07-16T05:24:41;98183.72;;;27.10;49.53
49297;BME280;35163;48.878;18.040;2023-07-16T05:27:08;98191.91;;;27.25;48.61
49297;BME280;35163;48.878;18.040;2023-07-16T05:29:35;98189.78;;;27.46;48.28
49297;BME280;35163;48.878;18.040;2023-07-16T05:32:02;98189.88;;;27.71;47.51
49297;BME280;35163;48.878;18.040;2023-07-16T05:34:29;98193.84;;;28.00;46.37
49297;BME280;35163;48.878;18.040;2023-07-16T05:36:56;98194.97;;;28.31;45.98
49297;BME280;35163;48.878;18.040;2023-07-16T05:39:23;98193.06;;;28.73;44.82
49297;BME280;35163;48.878;18.040;2023-07-16T05:41:49;98194.56;;;29.24;44.13
49297;BME280;35163;48.878;18.040;2023-07-16T05:44:16;98191.28;;;29.69;42.73
49297;BME280;35163;48.878;18.040;2023-07-16T05:46:43;98193.72;;;30.17;42.32
49297;BME280;35163;48.878;18.040;2023-07-16T05:49:10;98197.03;;;30.58;40.97
49297;BME280;35163;48.878;18.040;2023-07-16T05:51:37;98191.09;;;31.08;41.06
49297;BME280;35163;48.878;18.040;2023-07-16T05:54:04;98203.53;;;31.38;39.65
49297;BME280;35163;48.878;18.040;2023-07-16T05:56:30;98199.78;;;31.69;39.00
49297;BME280;35163;48.878;18.040;2023-07-16T05:58:57;98203.78;;;32.02;38.96
49297;BME280;35163;48.878;18.040;2023-07-16T06:01:24;98192.31;;;32.37;37.85
49297;BME280;35163;48.878;18.040;2023-07-16T06:03:50;98196.59;;;32.60;37.93
49297;BME280;35163;48.878;18.040;2023-07-16T06:06:17;98207.91;;;32.55;37.32
49297;BME280;35163;48.878;18.040;2023-07-16T06:08:44;98198.25;;;32.68;37.41
49297;BME280;35163;48.878;18.040;2023-07-16T06:11:12;98199.16;;;32.82;37.54
49297;BME280;35163;48.878;18.040;2023-07-16T06:13:39;98199.78;;;32.84;37.15
49297;BME280;35163;48.878;18.040;2023-07-16T06:16:05;98200.69;;;32.98;37.26
49297;BME280;35163;48.878;18.040;2023-07-16T06:18:32;98204.88;;;33.14;37.59
49297;BME280;35163;48.878;18.040;2023-07-16T06:20:59;98206.75;;;33.14;36.88
49297;BME280;35163;48.878;18.040;2023-07-16T06:23:26;98203.59;;;33.03;36.16
49297;BME280;35163;48.878;18.040;2023-07-16T06:25:56;98205.13;;;33.26;37.11
49297;BME280;35163;48.878;18.040;2023-07-16T06:28:23;98215.84;;;33.33;37.44
49297;BME280;35163;48.878;18.040;2023-07-16T06:30:50;98214.03;;;33.47;36.25
49297;BME280;35163;48.878;18.040;2023-07-16T06:33:20;98215.91;;;33.53;36.51
49297;BME280;35163;48.878;18.040;2023-07-16T06:35:47;98213.28;;;33.74;37.08
49297;BME280;35163;48.878;18.040;2023-07-16T06:38:14;98217.41;;;33.90;36.50
49297;BME280;35163;48.878;18.040;2023-07-16T06:40:51;98213.31;;;34.08;35.89
49297;BME280;35163;48.878;18.040;2023-07-16T06:43:18;98212.47;;;34.14;36.11
49297;BME280;35163;48.878;18.040;2023-07-16T06:45:45;98219.72;;;34.27;36.02
49297;BME280;35163;48.878;18.040;2023-07-16T06:48:12;98224.00;;;34.41;35.70
49297;BME280;35163;48.878;18.040;2023-07-16T06:50:38;98231.47;;;34.46;35.97
49297;BME280;35163;48.878;18.040;2023-07-16T06:53:05;98232.22;;;34.60;35.85
49297;BME280;35163;48.878;18.040;2023-07-16T06:55:32;98238.84;;;34.78;35.76
49297;BME280;35163;48.878;18.040;2023-07-16T06:58:00;98238.34;;;34.95;34.69
49297;BME280;35163;48.878;18.040;2023-07-16T07:00:27;98254.84;;;35.05;35.61
49297;BME280;35163;48.878;18.040;2023-07-16T07:02:53;98260.03;;;35.00;34.46
49297;BME280;35163;48.878;18.040;2023-07-16T07:05:22;98264.09;;;35.16;34.96
49297;BME280;35163;48.878;18.040;2023-07-16T07:07:48;98261.59;;;35.28;35.47
49297;BME280;35163;48.878;18.040;2023-07-16T07:10:15;98278.31;;;35.37;34.79
49297;BME280;35163;48.878;18.040;2023-07-16T07:12:42;98268.09;;;35.53;34.64
49297;BME280;35163;48.878;18.040;2023-07-16T07:15:09;98270.44;;;35.42;34.31
49297;BME280;35163;48.878;18.040;2023-07-16T07:17:36;98268.09;;;35.53;34.34
49297;BME280;35163;48.878;18.040;2023-07-16T07:20:03;98263.28;;;35.61;34.81
49297;BME280;35163;48.878;18.040;2023-07-16T07:22:30;98276.84;;;35.73;34.38
49297;BME280;35163;48.878;18.040;2023-07-16T07:24:58;98271.47;;;35.80;34.22
49297;BME280;35163;48.878;18.040;2023-07-16T07:27:24;98280.09;;;35.89;33.94
49297;BME280;35163;48.878;18.040;2023-07-16T07:29:51;98286.28;;;35.90;34.30
49297;BME280;35163;48.878;18.040;2023-07-16T07:32:19;98286.72;;;35.86;34.23
49297;BME280;35163;48.878;18.040;2023-07-16T07:34:47;98288.41;;;35.42;33.77
49297;BME280;35163;48.878;18.040;2023-07-16T07:37:14;98288.84;;;35.38;34.30
49297;BME280;35163;48.878;18.040;2023-07-16T07:39:41;98293.63;;;35.30;34.78
49297;BME280;35163;48.878;18.040;2023-07-16T07:42:08;98290.94;;;35.23;34.90
49297;BME280;35163;48.878;18.040;2023-07-16T07:44:36;98296.53;;;35.21;35.32
49297;BME280;35163;48.878;18.040;2023-07-16T07:47:04;98298.25;;;35.02;34.82
49297;BME280;35163;48.878;18.040;2023-07-16T07:49:31;98298.91;;;34.90;34.92
49297;BME280;35163;48.878;18.040;2023-07-16T07:52:00;98308.63;;;34.78;35.46
49297;BME280;35163;48.878;18.040;2023-07-16T07:54:27;98299.94;;;34.76;35.25
49297;BME280;35163;48.878;18.040;2023-07-16T07:56:53;98304.88;;;34.65;36.08
49297;BME280;35163;48.878;18.040;2023-07-16T07:59:20;98306.16;;;34.56;36.51
49297;BME280;35163;48.878;18.040;2023-07-16T08:01:47;98308.63;;;34.51;36.87
49297;BME280;35163;48.878;18.040;2023-07-16T08:04:14;98315.63;;;34.45;36.29
49297;BME280;35163;48.878;18.040;2023-07-16T08:06:41;98316.06;;;34.35;37.25
49297;BME280;35163;48.878;18.040;2023-07-16T08:09:07;98308.66;;;34.24;37.04
49297;BME280;35163;48.878;18.040;2023-07-16T08:11:34;98311.47;;;34.15;37.31
49297;BME280;35163;48.878;18.040;2023-07-16T08:14:01;98311.47;;;34.15;38.12
49297;BME280;35163;48.878;18.040;2023-07-16T08:16:27;98304.06;;;34.17;38.18
49297;BME280;35163;48.878;18.040;2023-07-16T08:18:54;98304.06;;;34.11;38.14
49297;BME280;35163;48.878;18.040;2023-07-16T08:21:20;98299.72;;;34.16;38.39
49297;BME280;35163;48.878;18.040;2023-07-16T08:23:48;98301.19;;;34.26;38.46
49297;BME280;35163;48.878;18.040;2023-07-16T08:26:16;98299.97;;;34.35;37.97
49297;BME280;35163;48.878;18.040;2023-07-16T08:28:43;98297.06;;;34.43;37.63
49297;BME280;35163;48.878;18.040;2023-07-16T08:31:11;98291.50;;;34.52;38.21
49297;BME280;35163;48.878;18.040;2023-07-16T08:33:40;98291.47;;;34.59;37.69
49297;BME280;35163;48.878;18.040;2023-07-16T08:36:07;98291.69;;;34.64;37.45
49297;BME280;35163;48.878;18.040;2023-07-16T08:38:33;98294.78;;;34.67;37.30
49297;BME280;35163;48.878;18.040;2023-07-16T08:41:00;98302.19;;;34.65;36.63
49297;BME280;35163;48.878;18.040;2023-07-16T08:43:28;98297.03;;;34.71;36.36
49297;BME280;35163;48.878;18.040;2023-07-16T08:45:56;98300.38;;;34.73;36.84
49297;BME280;35163;48.878;18.040;2023-07-16T08:48:23;98295.00;;;34.73;36.35
49297;BME280;35163;48.878;18.040;2023-07-16T08:50:49;98297.06;;;34.77;35.79
49297;BME280;35163;48.878;18.040;2023-07-16T08:53:16;98298.50;;;34.80;36.21
49297;BME280;35163;48.878;18.040;2023-07-16T08:55:44;98299.94;;;34.83;36.71
49297;BME280;35163;48.878;18.040;2023-07-16T08:58:14;98290.88;;;34.77;35.30
49297;BME280;35163;48.878;18.040;2023-07-16T09:00:43;98298.09;;;34.76;35.31
49297;BME280;35163;48.878;18.040;2023-07-16T09:03:11;98303.88;;;34.80;35.26
49297;BME280;35163;48.878;18.040;2023-07-16T09:05:39;98293.78;;;34.75;35.60
49297;BME280;35163;48.878;18.040;2023-07-16T09:08:07;98300.16;;;34.74;35.51
49297;BME280;35163;48.878;18.040;2023-07-16T09:10:34;98303.06;;;34.73;35.23
49297;BME280;35163;48.878;18.040;2023-07-16T09:13:01;98300.97;;;34.68;34.71
49297;BME280;35163;48.878;18.040;2023-07-16T09:15:29;98304.47;;;34.62;34.44
49297;BME280;35163;48.878;18.040;2023-07-16T09:17:56;98301.00;;;34.61;35.75
49297;BME280;35163;48.878;18.040;2023-07-16T09:20:23;98315.22;;;34.41;35.03
49297;BME280;35163;48.878;18.040;2023-07-16T09:22:53;98312.97;;;34.38;35.52
49297;BME280;35163;48.878;18.040;2023-07-16T09:25:31;98308.84;;;34.42;34.70
49297;BME280;35163;48.878;18.040;2023-07-16T09:28:01;98319.78;;;34.34;34.84
49297;BME280;35163;48.878;18.040;2023-07-16T09:30:32;98324.28;;;34.13;35.11
49297;BME280;35163;48.878;18.040;2023-07-16T09:33:13;98315.03;;;34.23;35.61
49297;BME280;35163;48.878;18.040;2023-07-16T09:35:41;98319.78;;;34.27;36.17
49297;BME280;35163;48.878;18.040;2023-07-16T09:38:08;98317.09;;;34.27;35.67
49297;BME280;35163;48.878;18.040;2023-07-16T09:40:39;98322.25;;;34.29;35.63
49297;BME280;35163;48.878;18.040;2023-07-16T09:43:10;98327.97;;;34.12;35.97
49297;BME280;35163;48.878;18.040;2023-07-16T09:45:37;98323.03;;;34.09;35.44
49297;BME280;35163;48.878;18.040;2023-07-16T09:48:04;98318.91;;;34.13;36.35
49297;BME280;35163;48.878;18.040;2023-07-16T09:50:35;98325.91;;;34.01;36.22
49297;BME280;35163;48.878;18.040;2023-07-16T09:53:04;98327.53;;;33.88;35.50
49297;BME280;35163;48.878;18.040;2023-07-16T09:55:32;98323.63;;;33.84;36.51
49297;BME280;35163;48.878;18.040;2023-07-16T09:58:06;98328.56;;;33.87;36.59
49297;BME280;35163;48.878;18.040;2023-07-16T10:00:36;98323.19;;;33.87;35.97
49297;BME280;35163;48.878;18.040;2023-07-16T10:03:07;98322.38;;;33.87;35.63
49297;BME280;35163;48.878;18.040;2023-07-16T10:05:36;98331.25;;;33.87;36.48
49297;BME280;35163;48.878;18.040;2023-07-16T10:08:04;98320.31;;;33.89;36.18
49297;BME280;35163;48.878;18.040;2023-07-16T10:10:52;98319.69;;;33.93;36.67
49297;BME280;35163;48.878;18.040;2023-07-16T10:13:23;98312.28;;;33.96;37.17
49297;BME280;35163;48.878;18.040;2023-07-16T10:15:57;98310.44;;;33.96;36.59
49297;BME280;35163;48.878;18.040;2023-07-16T10:18:31;98318.91;;;34.00;35.93
49297;BME280;35163;48.878;18.040;2023-07-16T10:21:09;98309.78;;;33.74;35.88
49297;BME280;35163;48.878;18.040;2023-07-16T10:23:43;98303.56;;;33.73;35.94
49297;BME280;35163;48.878;18.040;2023-07-16T10:26:14;98312.88;;;33.77;36.77
49297;BME280;35163;48.878;18.040;2023-07-16T10:28:46;98315.75;;;33.76;36.23
49297;BME280;35163;48.878;18.040;2023-07-16T10:31:23;98305.84;;;33.69;36.35
49297;BME280;35163;48.878;18.040;2023-07-16T10:36:27;98307.72;;;33.69;36.46
49297;BME280;35163;48.878;18.040;2023-07-16T10:38:54;98303.94;;;33.63;35.55
49297;BME280;35163;48.878;18.040;2023-07-16T10:41:20;98301.25;;;33.56;35.77
49297;BME280;35163;48.878;18.040;2023-07-16T10:43:47;98310.50;;;33.54;36.55
49297;BME280;35163;48.878;18.040;2023-07-16T10:46:14;98300.00;;;33.59;36.97
49297;BME280;35163;48.878;18.040;2023-07-16T10:48:46;98307.28;;;33.65;37.60
49297;BME280;35163;48.878;18.040;2023-07-16T10:51:16;98292.44;;;33.69;38.53
49297;BME280;35163;48.878;18.040;2023-07-16T10:53:43;98301.53;;;33.75;38.44
49297;BME280;35163;48.878;18.040;2023-07-16T10:56:10;98300.28;;;33.78;38.44
49297;BME280;35163;48.878;18.040;2023-07-16T10:58:37;98300.69;;;33.75;38.07
49297;BME280;35163;48.878;18.040;2023-07-16T11:01:04;98295.75;;;33.72;36.97
49297;BME280;35163;48.878;18.040;2023-07-16T11:03:31;98297.16;;;33.67;37.38
49297;BME280;35163;48.878;18.040;2023-07-16T11:05:58;98295.31;;;33.68;37.77
49297;BME280;35163;48.878;18.040;2023-07-16T11:08:25;98289.34;;;33.66;37.83
49297;BME280;35163;48.878;18.040;2023-07-16T11:10:58;98289.53;;;33.64;37.07
49297;BME280;35163;48.878;18.040;2023-07-16T11:13:28;98291.56;;;33.62;38.45
49297;BME280;35163;48.878;18.040;2023-07-16T11:15:55;98294.63;;;33.59;37.60
49297;BME280;35163;48.878;18.040;2023-07-16T11:18:23;98292.78;;;33.60;37.88
49297;BME280;35163;48.878;18.040;2023-07-16T11:20:52;98297.31;;;33.59;38.04
49297;BME280;35163;48.878;18.040;2023-07-16T11:23:19;98295.91;;;33.63;38.07
49297;BME280;35163;48.878;18.040;2023-07-16T11:25:47;98292.84;;;33.66;37.65
49297;BME280;35163;48.878;18.040;2023-07-16T11:28:14;98301.09;;;33.72;39.28
49297;BME280;35163;48.878;18.040;2023-07-16T11:30:41;98298.22;;;33.73;38.68
49297;BME280;35163;48.878;18.040;2023-07-16T11:33:11;98296.16;;;33.75;37.83
49297;BME280;35163;48.878;18.040;2023-07-16T11:35:39;98297.00;;;33.76;37.46
49297;BME280;35163;48.878;18.040;2023-07-16T11:38:07;98292.88;;;33.80;38.66
49297;BME280;35163;48.878;18.040;2023-07-16T11:40:35;98293.28;;;33.84;38.35
49297;BME280;35163;48.878;18.040;2023-07-16T11:43:11;98299.50;;;33.84;38.32
49297;BME280;35163;48.878;18.040;2023-07-16T11:45:38;98294.13;;;33.84;36.55
49297;BME280;35163;48.878;18.040;2023-07-16T11:48:05;98294.13;;;33.84;36.92
49297;BME280;35163;48.878;18.040;2023-07-16T11:50:32;98290.00;;;33.88;38.13
49297;BME280;35163;48.878;18.040;2023-07-16T11:53:00;98287.53;;;33.93;38.16
49297;BME280;35163;48.878;18.040;2023-07-16T11:55:30;98282.38;;;33.99;38.59
49297;BME280;35163;48.878;18.040;2023-07-16T11:57:57;98279.50;;;33.93;36.67
49297;BME280;35163;48.878;18.040;2023-07-16T12:00:26;98275.59;;;33.96;36.91
49297;BME280;35163;48.878;18.040;2023-07-16T12:02:53;98276.41;;;33.97;37.68
49297;BME280;35163;48.878;18.040;2023-07-16T12:05:21;98280.31;;;33.94;36.97
49297;BME280;35163;48.878;18.040;2023-07-16T12:08:07;98279.06;;;33.97;36.14
49297;BME280;35163;48.878;18.040;2023-07-16T12:10:41;98278.69;;;34.00;37.30
49297;BME280;35163;48.878;18.040;2023-07-16T12:13:07;98280.53;;;33.99;37.45
49297;BME280;35163;48.878;18.040;2023-07-16T12:15:34;98267.53;;;33.96;36.08
49297;BME280;35163;48.878;18.040;2023-07-16T12:18:01;98277.84;;;33.99;37.93
49297;BME280;35163;48.878;18.040;2023-07-16T12:20:27;98273.13;;;34.01;37.17
49297;BME280;35163;48.878;18.040;2023-07-16T12:22:54;98268.56;;;34.02;38.08
49297;BME280;35163;48.878;18.040;2023-07-16T12:25:21;98278.06;;;34.04;37.85
49297;BME280;35163;48.878;18.040;2023-07-16T12:27:48;98281.75;;;34.03;36.92
49297;BME280;35163;48.878;18.040;2023-07-16T12:30:16;98273.91;;;33.95;36.11
49297;BME280;35163;48.878;18.040;2023-07-16T12:32:42;98277.00;;;33.92;36.15
49297;BME280;35163;48.878;18.040;2023-07-16T12:35:09;98276.38;;;33.90;36.34
49297;BME280;35163;48.878;18.040;2023-07-16T12:37:36;98270.22;;;33.89;36.27
49297;BME280;35163;48.878;18.040;2023-07-16T12:40:06;98275.38;;;33.84;35.87
49297;BME280;35163;48.878;18.040;2023-07-16T12:42:33;98272.91;;;33.89;36.58
49297;BME280;35163;48.878;18.040;2023-07-16T12:45:01;98274.34;;;33.92;37.62
49297;BME280;35163;48.878;18.040;2023-07-16T12:47:27;98268.75;;;33.93;37.31
49297;BME280;35163;48.878;18.040;2023-07-16T12:49:54;98267.34;;;34.04;36.16
49297;BME280;35163;48.878;18.040;2023-07-16T12:52:21;98257.88;;;34.36;35.68
49297;BME280;35163;48.878;18.040;2023-07-16T12:54:48;98261.13;;;34.85;34.83
49297;BME280;35163;48.878;18.040;2023-07-16T12:57:16;98261.72;;;35.47;33.15
49297;BME280;35163;48.878;18.040;2023-07-16T12:59:43;98267.91;;;36.12;31.45
49297;BME280;35163;48.878;18.040;2023-07-16T13:02:10;98272.50;;;36.37;30.98
49297;BME280;35163;48.878;18.040;2023-07-16T13:04:36;98270.34;;;36.20;31.45